Time;durP1;ratioP1;P1;durP2;ratioP2;P2;SDS_P1;SDS_P2;PMS_P1;PMS_P2;Temp;Humidity;BMP_temperature;BMP_pressure;BME280_temperature;BME280_humidity;BME280_pressure;Samples;Min_cycle;Max_cycle;Signal;HPM_P1;HPM_P2
2023/06/15 00:00:17;;;;;;;14.30;4.43;;;;;;;25.77;24.80;99501.66;5035479;28;20497;-64
2023/06/15 00:02:43;;;;;;;9.10;4.32;;;;;;;25.64;25.14;99498.56;5053345;28;20138;-64
2023/06/15 00:05:09;;;;;;;10.68;4.45;;;;;;;25.74;25.05;99493.22;5002823;28;20150;-64
2023/06/15 00:07:35;;;;;;;16.10;4.43;;;;;;;25.68;25.29;99497.78;5035708;28;20502;-64
2023/06/15 00:10:01;;;;;;;11.98;4.03;;;;;;;25.63;24.72;99495.00;5035411;28;20132;-64
2023/06/15 00:12:31;;;;;;;9.05;3.92;;;;;;;25.72;25.18;99496.19;5035977;28;20449;-64
2023/06/15 00:14:57;;;;;;;12.82;4.53;;;;;;;25.59;25.09;99488.44;5051698;28;20060;-64
2023/06/15 00:17:23;;;;;;;15.23;4.40;;;;;;;25.55;25.02;99500.13;5036206;28;20048;-64
2023/06/15 00:19:49;;;;;;;15.65;4.75;;;;;;;25.40;25.30;99492.63;5019068;28;20457;-64
2023/06/15 00:22:15;;;;;;;16.98;4.05;;;;;;;25.47;25.01;99497.84;5052087;28;20045;-64
2023/06/15 00:24:44;;;;;;;16.65;4.30;;;;;;;25.69;25.21;99496.72;5019320;28;20052;-64
2023/06/15 00:27:10;;;;;;;9.85;4.40;;;;;;;25.37;25.37;99487.69;5035852;28;20124;-64
2023/06/15 00:29:37;;;;;;;13.05;4.57;;;;;;;25.47;25.23;99497.84;5035331;28;20106;-64
2023/06/15 00:32:04;;;;;;;17.08;4.05;;;;;;;25.42;25.29;99498.63;5035982;28;20389;-64
2023/06/15 00:34:30;;;;;;;14.00;4.30;;;;;;;25.33;25.15;99497.44;5035271;28;20047;-64
2023/06/15 00:36:56;;;;;;;16.27;4.53;;;;;;;25.28;25.38;99499.28;5002280;28;20045;-64
2023/06/15 00:39:24;;;;;;;12.55;4.10;;;;;;;25.31;25.51;99498.75;5035197;28;20037;-64
2023/06/15 00:41:50;;;;;;;12.90;4.47;;;;;;;25.23;25.51;99499.22;5034799;28;20123;-64
2023/06/15 00:44:16;;;;;;;10.43;4.43;;;;;;;25.15;25.29;99495.06;5034887;28;20059;-64
2023/06/15 00:46:42;;;;;;;9.60;4.50;;;;;;;25.13;25.30;99482.78;5018526;28;20051;-64
2023/06/15 00:49:08;;;;;;;10.52;4.00;;;;;;;25.23;25.28;99497.34;5034871;28;20040;-64
2023/06/15 00:51:38;;;;;;;10.13;4.50;;;;;;;25.25;25.18;99489.72;5034902;28;20048;-64
2023/06/15 00:54:05;;;;;;;12.45;5.97;;;;;;;25.11;25.01;99496.63;5018677;28;20159;-65
2023/06/15 00:56:31;;;;;;;11.07;4.85;;;;;;;25.07;25.07;99492.78;5018233;28;20143;-64
2023/06/15 00:58:57;;;;;;;10.27;4.80;;;;;;;25.17;24.77;99502.97;5051366;28;20136;-64
2023/06/15 01:01:23;;;;;;;14.45;4.97;;;;;;;25.26;24.65;99501.41;5051384;28;20041;-64
2023/06/15 01:03:50;;;;;;;8.38;4.55;;;;;;;25.28;24.90;99500.09;5051990;28;20049;-65
2023/06/15 01:06:19;;;;;;;11.85;4.68;;;;;;;25.32;24.78;99506.66;5017961;28;20135;-64
2023/06/15 01:08:48;;;;;;;14.15;4.75;;;;;;;25.46;24.68;99504.38;5002312;28;20388;-64
2023/06/15 01:11:15;;;;;;;11.60;5.00;;;;;;;25.33;24.81;99500.16;5034541;28;20387;-64
2023/06/15 01:13:42;;;;;;;7.22;4.65;;;;;;;25.44;24.83;99510.06;5034333;28;20362;-64
2023/06/15 01:16:14;;;;;;;13.07;4.40;;;;;;;25.51;24.68;99507.16;5051529;28;20053;-64
2023/06/15 01:18:46;;;;;;;11.38;4.40;;;;;;;25.33;24.73;99502.06;5034381;28;20041;-64
2023/06/15 01:21:13;;;;;;;13.50;4.60;;;;;;;25.27;24.82;99512.03;5034383;28;20131;-64
2023/06/15 01:23:50;;;;;;;10.20;4.70;;;;;;;25.46;24.95;99512.53;5034497;28;20040;-64
2023/06/15 01:26:17;;;;;;;9.30;4.13;;;;;;;25.26;25.03;99507.69;5018064;28;20538;-64
2023/06/15 01:28:49;;;;;;;13.65;3.90;;;;;;;25.48;24.91;99508.47;5034231;28;20052;-64
2023/06/15 01:31:16;;;;;;;7.32;3.90;;;;;;;25.30;25.05;99505.25;5034122;28;20087;-64
2023/06/15 01:33:49;;;;;;;7.43;3.75;;;;;;;25.50;24.86;99516.38;5017683;28;20380;-64
2023/06/15 01:36:16;;;;;;;9.73;4.55;;;;;;;25.25;25.36;99508.75;5051602;28;20049;-66
2023/06/15 01:38:50;;;;;;;13.30;4.40;;;;;;;25.37;25.13;99501.28;5034253;28;20102;-64
2023/06/15 01:41:17;;;;;;;15.80;4.40;;;;;;;25.27;25.04;99492.19;5050117;28;20123;-64
2023/06/15 01:43:43;;;;;;;10.77;4.45;;;;;;;25.21;25.46;99499.47;5050600;28;20041;-64
2023/06/15 01:46:09;;;;;;;10.20;4.30;;;;;;;25.27;25.11;99497.63;5050233;28;20040;-64
2023/06/15 01:48:36;;;;;;;7.97;4.07;;;;;;;25.39;25.06;99501.03;5017151;28;20044;-65
2023/06/15 01:51:02;;;;;;;7.47;3.92;;;;;;;25.36;24.95;99499.66;5049410;28;20045;-64
2023/06/15 01:53:29;;;;;;;15.10;4.28;;;;;;;25.30;25.53;99495.22;5050535;28;20098;-64
2023/06/15 01:55:55;;;;;;;15.48;4.32;;;;;;;25.34;25.64;99507.25;5050201;28;20047;-64
2023/06/15 01:58:22;;;;;;;6.90;3.70;;;;;;;25.29;25.52;99500.91;5033622;28;20084;-64
2023/06/15 02:00:48;;;;;;;7.93;3.90;;;;;;;25.28;25.47;99508.22;5000792;28;20080;-64
2023/06/15 02:03:14;;;;;;;11.63;4.15;;;;;;;25.29;25.82;99511.78;5050286;28;20037;-64
2023/06/15 02:05:40;;;;;;;11.18;4.05;;;;;;;25.38;25.41;99502.94;5050067;28;20041;-64
2023/06/15 02:08:11;;;;;;;6.85;3.65;;;;;;;25.50;25.56;99502.78;5066399;28;20045;-64
2023/06/15 02:10:38;;;;;;;8.83;3.47;;;;;;;25.34;25.84;99517.31;5020451;28;20048;-64
2023/06/15 02:13:07;;;;;;;5.97;4.03;;;;;;;25.41;25.36;99510.59;5037272;28;20040;-65
2023/06/15 02:15:34;;;;;;;9.75;3.65;;;;;;;25.34;25.82;99507.25;5054181;28;20044;-65
2023/06/15 02:18:03;;;;;;;12.00;4.05;;;;;;;25.27;25.75;99512.03;5024712;28;20036;-65
2023/06/15 02:20:49;;;;;;;11.00;3.88;;;;;;;25.28;25.59;99510.94;5060270;28;20391;-64
2023/06/15 02:23:19;;;;;;;8.27;3.63;;;;;;;25.35;25.65;99517.06;5057239;28;20052;-64
2023/06/15 02:25:46;;;;;;;10.35;3.72;;;;;;;25.42;25.17;99525.81;5024798;28;20037;-64
2023/06/15 02:28:12;;;;;;;11.02;3.97;;;;;;;25.41;25.32;99513.31;5057249;28;20504;-64
2023/06/15 02:30:38;;;;;;;9.88;3.78;;;;;;;25.51;25.20;99528.91;5024128;28;20082;-64
2023/06/15 02:33:05;;;;;;;7.88;3.95;;;;;;;25.52;25.14;99525.09;5040461;28;20044;-64
2023/06/15 02:35:31;;;;;;;8.05;3.80;;;;;;;25.60;25.14;99521.94;5041124;28;20044;-64
2023/06/15 02:37:58;;;;;;;9.88;3.63;;;;;;;25.65;25.25;99525.50;5057387;28;20071;-64
2023/06/15 02:40:24;;;;;;;13.77;4.40;;;;;;;25.69;25.02;99526.66;5040381;28;20075;-64
2023/06/15 02:42:50;;;;;;;9.48;3.58;;;;;;;25.71;25.54;99524.47;5057147;28;20060;-64
2023/06/15 02:45:17;;;;;;;10.98;3.42;;;;;;;25.71;25.39;99523.66;5057050;28;20090;-64
2023/06/15 02:47:44;;;;;;;10.20;4.07;;;;;;;25.76;25.10;99520.97;5040503;28;20040;-64
2023/06/15 02:50:10;;;;;;;7.82;3.60;;;;;;;25.89;25.02;99526.00;5074354;28;20072;-64
2023/06/15 02:52:45;;;;;;;10.30;4.15;;;;;;;25.93;25.11;99525.22;5024808;28;20125;-64
2023/06/15 02:55:13;;;;;;;9.38;3.67;;;;;;;25.98;24.92;99519.81;5057159;28;20099;-64
2023/06/15 02:57:41;;;;;;;9.80;3.50;;;;;;;26.02;24.87;99526.41;5040015;28;20080;-65
2023/06/15 03:00:25;;;;;;;11.48;4.25;;;;;;;26.07;24.78;99531.06;5026273;28;20101;-64
2023/06/15 03:03:02;;;;;;;10.95;3.97;;;;;;;26.11;24.93;99521.28;5058536;28;20108;-64
2023/06/15 03:05:35;;;;;;;6.30;3.90;;;;;;;26.18;24.71;99522.72;5072759;28;20055;-64
2023/06/15 03:08:02;;;;;;;10.10;4.13;;;;;;;26.27;24.90;99526.59;5008795;28;20044;-63
2023/06/15 03:10:54;;;;;;;7.95;3.83;;;;;;;26.36;24.50;99538.63;5039950;28;20044;-64
2023/06/15 03:13:20;;;;;;;11.80;3.65;;;;;;;26.40;24.86;99530.78;5057065;28;20465;-64
2023/06/15 03:15:48;;;;;;;19.23;4.15;;;;;;;26.48;25.01;99529.44;5056107;28;20047;-64
2023/06/15 03:18:14;;;;;;;11.73;4.25;;;;;;;26.49;24.70;99537.34;5031399;28;20036;-64
2023/06/15 03:20:43;;;;;;;14.55;3.97;;;;;;;26.52;24.58;99542.28;5013334;28;20044;-64
2023/06/15 03:23:10;;;;;;;7.68;3.78;;;;;;;26.72;24.72;99541.59;5036533;28;20052;-64
2023/06/15 03:25:36;;;;;;;11.80;4.20;;;;;;;26.60;24.84;99525.41;5018949;28;20148;-64
2023/06/15 03:28:02;;;;;;;15.50;4.20;;;;;;;26.74;24.89;99531.25;5001524;28;20140;-64
2023/06/15 03:30:35;;;;;;;19.88;4.30;;;;;;;26.73;25.05;99538.59;5019170;28;20041;-64
2023/06/15 03:33:02;;;;;;;13.35;4.38;;;;;;;26.77;24.90;99534.25;5035414;28;20048;-64
2023/06/15 03:35:28;;;;;;;10.30;4.28;;;;;;;26.88;24.77;99529.69;5052867;28;20044;-64
2023/06/15 03:37:54;;;;;;;16.35;3.80;;;;;;;26.96;24.85;99535.44;5052087;28;20041;-64
2023/06/15 03:40:21;;;;;;;9.20;4.22;;;;;;;26.98;24.79;99537.91;5018889;28;20127;-64
2023/06/15 03:42:47;;;;;;;12.95;4.60;;;;;;;27.09;24.53;99542.31;5018637;28;20055;-65
2023/06/15 03:45:13;;;;;;;14.65;4.00;;;;;;;27.16;24.58;99542.88;5035157;28;20037;-64
2023/06/15 03:47:41;;;;;;;8.95;4.07;;;;;;;27.24;24.40;99553.25;5034284;28;20045;-65
2023/06/15 03:50:08;;;;;;;8.00;3.80;;;;;;;27.35;24.44;99544.06;4985974;28;20052;-64
2023/06/15 03:52:35;;;;;;;11.13;3.92;;;;;;;27.38;24.41;99546.25;5035032;28;20049;-65
2023/06/15 03:55:02;;;;;;;9.20;3.78;;;;;;;27.40;24.35;99542.16;5034700;28;20098;-64
2023/06/15 03:57:30;;;;;;;8.30;4.03;;;;;;;27.38;24.26;99530.72;5018352;28;20149;-64
2023/06/15 03:59:56;;;;;;;11.27;4.32;;;;;;;27.41;24.47;99526.59;5052069;28;20476;-65
2023/06/15 04:02:23;;;;;;;10.82;4.22;;;;;;;27.60;24.23;99544.91;5018283;28;20477;-65
2023/06/15 04:04:52;;;;;;;12.77;4.10;;;;;;;27.60;24.18;99542.19;4985735;28;20044;-64
2023/06/15 04:07:19;;;;;;;13.73;4.20;;;;;;;27.74;23.96;99537.00;5034505;28;20041;-64
2023/06/15 04:09:45;;;;;;;5.95;3.63;;;;;;;27.84;23.83;99543.31;5001985;28;20386;-64
2023/06/15 04:12:12;;;;;;;7.70;3.63;;;;;;;27.93;23.57;99541.72;5034749;28;20052;-64
2023/06/15 04:14:38;;;;;;;8.75;4.03;;;;;;;27.99;23.68;99543.34;5037477;28;20151;-64
2023/06/15 04:17:05;;;;;;;13.45;4.20;;;;;;;28.00;23.63;99544.97;5037939;28;20135;-64
2023/06/15 04:19:31;;;;;;;8.95;4.00;;;;;;;28.14;23.90;99547.19;5018678;28;20123;-64
2023/06/15 04:21:57;;;;;;;14.60;3.70;;;;;;;28.62;23.13;99552.03;5037373;28;20044;-64
2023/06/15 04:24:24;;;;;;;13.27;3.95;;;;;;;29.02;22.46;99551.91;5037713;28;20058;-64
2023/06/15 04:26:50;;;;;;;10.68;3.40;;;;;;;29.34;22.28;99544.13;5037126;28;20040;-65
2023/06/15 04:29:18;;;;;;;8.93;3.88;;;;;;;29.75;21.63;99545.53;5045796;28;20049;-64
2023/06/15 04:31:46;;;;;;;5.90;3.38;;;;;;;30.01;21.12;99544.25;5012499;28;20045;-66
2023/06/15 04:34:15;;;;;;;12.02;4.00;;;;;;;30.21;20.81;99549.56;5029784;28;20651;-66
2023/06/15 04:36:44;;;;;;;11.60;5.38;;;;;;;30.36;20.02;99551.34;5028812;28;20033;-66
2023/06/15 04:39:11;;;;;;;11.75;5.10;;;;;;;30.57;20.15;99555.50;5012694;28;20037;-65
2023/06/15 04:41:38;;;;;;;7.40;3.53;;;;;;;30.76;19.84;99548.22;5029570;28;20385;-67
2023/06/15 04:44:05;;;;;;;13.38;4.15;;;;;;;30.95;19.87;99552.63;5030847;28;20041;-67
2023/06/15 04:46:32;;;;;;;9.05;4.13;;;;;;;31.11;19.75;99550.53;5014225;28;20041;-67
2023/06/15 04:49:00;;;;;;;9.55;4.35;;;;;;;31.14;19.70;99552.69;5030291;28;20059;-66
2023/06/15 04:51:27;;;;;;;12.88;4.38;;;;;;;31.13;18.95;99543.66;5030861;28;20524;-67
2023/06/15 04:53:53;;;;;;;10.43;4.43;;;;;;;31.17;19.19;99552.09;5014435;28;20048;-67
2023/06/15 04:56:19;;;;;;;8.52;4.32;;;;;;;31.28;19.10;99544.53;5047186;28;20045;-67
2023/06/15 04:58:45;;;;;;;12.38;4.30;;;;;;;31.46;19.17;99557.50;5030010;28;20110;-66
2023/06/15 05:01:11;;;;;;;15.07;4.97;;;;;;;31.46;19.07;99558.31;5014245;28;20057;-67
2023/06/15 05:03:38;;;;;;;11.57;4.07;;;;;;;31.60;19.07;99566.66;4997913;28;20045;-67
2023/06/15 05:06:04;;;;;;;9.07;4.10;;;;;;;31.75;19.04;99569.16;5014102;28;20049;-67
2023/06/15 05:08:33;;;;;;;8.07;3.88;;;;;;;31.80;18.67;99566.34;5013505;28;20400;-66
2023/06/15 05:11:00;;;;;;;8.60;4.15;;;;;;;31.99;18.44;99573.47;5046663;28;20079;-65
2023/06/15 05:13:30;;;;;;;14.27;4.15;;;;;;;31.94;18.44;99559.81;5013399;28;20099;-65
2023/06/15 05:15:56;;;;;;;11.45;4.00;;;;;;;32.15;18.59;99563.84;5014082;28;20044;-66
2023/06/15 05:18:24;;;;;;;12.27;3.70;;;;;;;32.24;18.57;99564.81;5030323;28;20128;-66
2023/06/15 05:20:50;;;;;;;16.25;3.42;;;;;;;32.36;18.28;99567.09;5030235;28;20184;-66
2023/06/15 05:23:19;;;;;;;9.07;3.50;;;;;;;32.33;17.48;99560.25;5029835;28;20045;-66
2023/06/15 05:25:45;;;;;;;8.40;3.53;;;;;;;32.53;17.20;99562.66;5029934;28;20041;-66
2023/06/15 05:28:12;;;;;;;7.20;3.60;;;;;;;32.63;17.46;99559.72;5013714;28;20147;-66
2023/06/15 05:30:39;;;;;;;9.10;3.53;;;;;;;32.72;16.76;99550.78;4997273;28;20044;-66
2023/06/15 05:33:05;;;;;;;8.38;3.00;;;;;;;32.78;16.35;99561.38;5013790;28;20049;-65
2023/06/15 05:35:31;;;;;;;10.27;3.65;;;;;;;32.69;16.21;99568.72;5030004;28;20053;-65
2023/06/15 05:37:57;;;;;;;5.88;3.08;;;;;;;32.80;16.22;99569.31;5013349;28;20064;-65
2023/06/15 05:40:23;;;;;;;9.43;2.83;;;;;;;32.86;16.22;99565.34;5013426;28;20080;-65
2023/06/15 05:42:50;;;;;;;11.52;2.80;;;;;;;32.69;16.21;99563.22;5013734;28;20041;-66
2023/06/15 05:45:17;;;;;;;7.00;3.22;;;;;;;32.85;16.25;99567.28;5013785;28;20069;-66
2023/06/15 05:47:43;;;;;;;6.80;3.65;;;;;;;32.68;16.30;99562.38;5013040;28;20041;-69
2023/06/15 05:50:09;;;;;;;9.10;4.25;;;;;;;32.78;16.60;99566.88;5028999;28;20048;-66
2023/06/15 05:52:35;;;;;;;11.43;4.60;;;;;;;32.88;16.38;99576.88;5013164;28;20124;-66
2023/06/15 05:55:02;;;;;;;10.52;3.90;;;;;;;32.99;16.13;99567.31;5030527;28;20041;-66
2023/06/15 05:57:31;;;;;;;12.60;4.07;;;;;;;33.04;15.96;99564.44;5013785;28;20481;-67
2023/06/15 05:59:56;;;;;;;10.50;3.60;;;;;;;33.15;16.03;99579.66;5013014;28;20292;-66
2023/06/15 06:02:23;;;;;;;13.10;3.50;;;;;;;33.16;16.26;99567.50;5029553;28;20056;-67
2023/06/15 06:04:51;;;;;;;8.50;3.15;;;;;;;33.16;16.04;99581.25;4996925;28;20041;-66
2023/06/15 06:07:17;;;;;;;8.55;3.20;;;;;;;33.24;15.90;99561.28;5029219;28;20044;-66
2023/06/15 06:09:43;;;;;;;5.35;2.97;;;;;;;33.33;15.41;99570.44;5012951;28;20041;-66
2023/06/15 06:12:13;;;;;;;9.50;2.58;;;;;;;33.33;15.43;99574.00;4995773;28;20049;-67
2023/06/15 06:14:39;;;;;;;6.40;2.40;;;;;;;33.34;15.15;99569.31;4996711;28;20057;-66
2023/06/15 06:17:05;;;;;;;6.60;2.78;;;;;;;33.45;15.61;99565.25;4996944;28;20045;-67
2023/06/15 06:19:31;;;;;;;4.35;2.75;;;;;;;33.42;15.25;99565.88;5012895;28;20092;-66
2023/06/15 06:21:57;;;;;;;4.80;3.03;;;;;;;33.49;15.25;99571.78;5012459;28;20049;-66
2023/06/15 06:24:23;;;;;;;6.97;2.80;;;;;;;33.53;15.25;99559.00;5029523;28;20041;-66
2023/06/15 06:26:49;;;;;;;5.82;2.70;;;;;;;33.60;15.27;99570.41;5012881;28;20038;-65
2023/06/15 06:29:15;;;;;;;6.97;3.10;;;;;;;33.70;15.58;99572.94;5025986;28;20111;-65
2023/06/15 06:31:42;;;;;;;6.90;2.70;;;;;;;33.72;15.73;99570.69;5031996;28;20049;-66
2023/06/15 06:34:08;;;;;;;9.85;3.05;;;;;;;33.87;15.29;99564.81;5047795;28;20075;-66
2023/06/15 06:36:34;;;;;;;7.22;2.90;;;;;;;33.84;15.41;99559.94;5030481;28;20560;-66
2023/06/15 06:39:00;;;;;;;6.60;2.85;;;;;;;34.04;15.10;99559.47;5048365;28;20049;-67
2023/06/15 06:41:26;;;;;;;8.50;2.80;;;;;;;33.92;15.21;99570.25;5016134;28;20049;-65
2023/06/15 06:43:53;;;;;;;10.20;2.80;;;;;;;34.01;15.11;99576.63;5048857;28;20376;-65
2023/06/15 06:46:18;;;;;;;4.50;2.53;;;;;;;34.08;14.81;99566.81;5032147;28;20053;-65
2023/06/15 06:48:45;;;;;;;10.90;2.75;;;;;;;34.34;14.56;99569.72;5048222;28;20480;-66
2023/06/15 06:51:11;;;;;;;6.82;2.70;;;;;;;34.28;14.85;99565.47;5048947;28;20047;-67
2023/06/15 06:53:36;;;;;;;9.05;3.13;;;;;;;34.36;14.87;99563.88;5049646;28;20124;-65
2023/06/15 06:56:02;;;;;;;4.82;2.70;;;;;;;34.45;14.88;99568.34;5032392;28;20381;-65
2023/06/15 06:58:29;;;;;;;6.55;2.60;;;;;;;34.53;14.31;99562.09;5065676;28;20839;-66
2023/06/15 07:00:57;;;;;;;6.28;2.85;;;;;;;34.98;14.59;99580.16;5037306;28;20041;-66
2023/06/15 07:03:24;;;;;;;7.93;3.10;;;;;;;34.94;14.30;99570.06;4999689;28;20052;-66
2023/06/15 07:05:50;;;;;;;4.03;2.65;;;;;;;35.03;14.16;99568.19;5016345;28;20037;-66
2023/06/15 07:08:16;;;;;;;13.68;3.13;;;;;;;35.24;13.75;99570.00;5016373;28;20060;-66
2023/06/15 07:10:42;;;;;;;9.55;3.03;;;;;;;35.40;13.94;99568.44;5032487;28;20095;-65
2023/06/15 07:13:08;;;;;;;5.78;2.95;;;;;;;35.58;13.83;99561.81;5015403;28;20493;-65
2023/06/15 07:15:34;;;;;;;8.00;2.55;;;;;;;35.86;13.73;99572.59;5032510;28;20136;-66
2023/06/15 07:18:00;;;;;;;9.73;3.10;;;;;;;36.05;12.83;99568.34;5032356;28;20049;-67
2023/06/15 07:20:26;;;;;;;5.43;2.30;;;;;;;36.37;12.36;99554.00;4999436;28;20042;-66
2023/06/15 07:22:51;;;;;;;5.68;2.90;;;;;;;36.83;12.24;99564.28;5032019;28;20103;-66
2023/06/15 07:25:17;;;;;;;6.13;2.90;;;;;;;37.07;11.90;99572.81;5032102;28;20053;-66
2023/06/15 07:27:43;;;;;;;8.25;3.13;;;;;;;37.55;11.54;99564.88;5032904;28;20045;-67
2023/06/15 07:30:09;;;;;;;9.75;2.90;;;;;;;38.11;11.31;99563.50;5035503;28;20352;-67
2023/06/15 07:32:35;;;;;;;8.23;2.95;;;;;;;38.73;10.90;99553.84;5035673;28;20053;-67
2023/06/15 07:35:04;;;;;;;9.40;2.97;;;;;;;39.44;10.18;99556.19;5018880;28;20048;-67
2023/06/15 07:37:32;;;;;;;5.80;2.88;;;;;;;40.25;9.83;99551.06;5035594;28;20126;-67
2023/06/15 07:39:57;;;;;;;6.90;2.50;;;;;;;41.36;9.33;99557.97;5035012;28;20140;-67
2023/06/15 07:42:23;;;;;;;7.13;2.67;;;;;;;42.78;8.50;99549.38;5035198;28;20132;-68
2023/06/15 07:44:49;;;;;;;11.60;2.78;;;;;;;44.44;7.64;99550.53;5035503;28;20286;-68
2023/06/15 07:47:15;;;;;;;7.18;2.40;;;;;;;45.91;6.74;99545.28;5050168;28;20040;-67
2023/06/15 07:49:41;;;;;;;8.00;2.40;;;;;;;47.58;5.69;99554.28;5036089;28;20049;-67
2023/06/15 07:52:07;;;;;;;7.18;2.33;;;;;;;49.42;5.03;99554.75;5037266;28;20075;-68
2023/06/15 07:54:33;;;;;;;3.55;2.47;;;;;;;50.69;4.42;99544.63;5037119;28;20040;-67
2023/06/15 07:56:59;;;;;;;7.47;2.33;;;;;;;51.81;3.85;99536.88;5021148;28;20047;-67
2023/06/15 07:59:25;;;;;;;5.32;2.40;;;;;;;52.71;3.31;99543.78;5054711;28;20040;-68
2023/06/15 08:01:51;;;;;;;7.30;2.58;;;;;;;54.01;2.87;99538.16;5037966;28;20041;-67
2023/06/15 08:04:17;;;;;;;6.20;2.40;;;;;;;54.40;2.60;99539.78;5038192;28;20144;-67
2023/06/15 08:06:43;;;;;;;7.70;2.30;;;;;;;54.85;2.17;99531.84;5038019;28;20123;-68
2023/06/15 08:09:11;;;;;;;6.10;2.13;;;;;;;55.17;2.45;99537.22;5021733;28;20056;-67
2023/06/15 08:11:37;;;;;;;2.35;1.90;;;;;;;55.88;2.19;99529.72;5037945;28;20063;-68
2023/06/15 08:14:04;;;;;;;6.72;2.30;;;;;;;56.07;1.94;99531.44;5020534;28;20407;-67
2023/06/15 08:16:30;;;;;;;5.25;2.40;;;;;;;56.29;1.49;99535.81;5054439;28;20110;-68
2023/06/15 08:18:56;;;;;;;4.07;2.33;;;;;;;56.93;1.60;99524.59;5004951;28;20685;-67
2023/06/15 08:21:21;;;;;;;8.15;2.60;;;;;;;57.40;1.46;99520.06;5037867;28;20056;-68
2023/06/15 08:23:47;;;;;;;4.00;1.92;;;;;;;57.64;1.20;99517.34;5020934;28;20468;-68
2023/06/15 08:26:14;;;;;;;2.65;2.00;;;;;;;58.07;0.87;99524.72;5054729;28;20040;-68
2023/06/15 08:28:41;;;;;;;3.63;2.00;;;;;;;58.39;0.63;99529.69;5037494;28;20056;-68
2023/06/15 08:31:06;;;;;;;4.50;1.90;;;;;;;58.87;0.22;99503.50;4997073;28;20517;-67
2023/06/15 08:33:33;;;;;;;3.35;1.88;;;;;;;58.46;0.84;99515.03;4997028;28;20057;-67
2023/06/15 08:35:59;;;;;;;6.00;2.13;;;;;;;58.71;0.95;99506.00;4980859;28;20049;-66
2023/06/15 08:38:25;;;;;;;6.90;2.30;;;;;;;58.38;0.50;99511.72;4996994;28;20041;-67
2023/06/15 08:40:51;;;;;;;5.97;2.30;;;;;;;58.80;0.27;99506.72;4980650;28;20500;-66
2023/06/15 08:43:18;;;;;;;3.08;1.83;;;;;;;59.65;0.00;99497.28;5013103;28;20061;-67
2023/06/15 08:45:47;;;;;;;8.15;2.20;;;;;;;59.96;0.27;99493.91;4996959;28;20049;-68
2023/06/15 08:48:16;;;;;;;8.02;2.40;;;;;;;60.19;0.01;99498.75;5012895;28;20491;-68
2023/06/15 08:50:44;;;;;;;7.57;2.30;;;;;;;60.48;0.18;99492.94;4996640;28;20064;-68
2023/06/15 08:53:12;;;;;;;9.15;2.35;;;;;;;60.84;0.00;99494.47;4996525;28;20049;-69
2023/06/15 08:55:38;;;;;;;5.68;2.40;;;;;;;61.38;0.00;99500.13;4980677;28;20157;-69
2023/06/15 08:58:05;;;;;;;4.60;1.80;;;;;;;61.07;0.07;99494.25;5012946;28;20050;-68
2023/06/15 09:00:32;;;;;;;3.45;1.65;;;;;;;61.54;0.00;99485.16;4980344;28;20430;-68
2023/06/15 09:03:00;;;;;;;5.90;1.92;;;;;;;62.01;0.00;99485.81;5020269;28;20048;-68
2023/06/15 09:05:26;;;;;;;5.85;1.70;;;;;;;62.28;0.00;99482.34;5036905;28;20082;-68
2023/06/15 09:07:53;;;;;;;4.95;1.90;;;;;;;62.52;0.00;99477.81;5053627;28;20667;-68
2023/06/15 09:10:20;;;;;;;5.90;1.75;;;;;;;62.94;0.00;99472.03;5053673;28;20040;-68
2023/06/15 09:12:53;;;;;;;3.33;1.83;;;;;;;62.61;0.00;99462.44;5003490;28;20040;-68
2023/06/15 09:15:27;;;;;;;5.53;2.20;;;;;;;62.73;0.00;99459.06;5020587;28;20488;-68
2023/06/15 09:17:57;;;;;;;9.50;2.08;;;;;;;62.72;0.00;99468.22;5019803;28;20059;-68
2023/06/15 09:20:25;;;;;;;6.03;2.50;;;;;;;62.60;0.00;99458.75;5053384;28;20036;-68
2023/06/15 09:22:51;;;;;;;5.32;2.20;;;;;;;61.99;0.00;99446.03;5019577;28;20385;-67
2023/06/15 09:25:21;;;;;;;7.50;2.00;;;;;;;61.84;0.00;99449.06;5036445;28;20396;-68
2023/06/15 09:27:58;;;;;;;6.85;1.95;;;;;;;61.57;0.00;99457.44;5036715;28;20101;-67
2023/06/15 09:30:35;;;;;;;6.57;2.20;;;;;;;61.61;0.00;99449.38;5036764;28;20438;-67
2023/06/15 09:33:12;;;;;;;7.68;1.95;;;;;;;61.29;0.00;99460.03;5053172;28;20171;-66
2023/06/15 09:36:02;;;;;;;5.33;1.90;;;;;;;61.52;0.00;99452.44;5069525;28;20608;-67
2023/06/15 09:38:48;;;;;;;3.33;2.03;;;;;;;60.97;0.00;99444.00;5036698;28;20045;-67
2023/06/15 09:41:15;;;;;;;6.63;1.92;;;;;;;61.00;0.00;99451.59;5070544;28;20055;-67
2023/06/15 09:43:41;;;;;;;2.95;2.00;;;;;;;61.70;0.00;99446.31;5051632;28;20464;-67
2023/06/15 09:46:12;;;;;;;3.88;2.08;;;;;;;62.28;0.00;99439.97;5003458;28;20139;-67
2023/06/15 09:48:38;;;;;;;4.75;1.80;;;;;;;62.55;0.00;99442.22;5050673;28;20366;-67
2023/06/15 09:51:04;;;;;;;1.75;1.63;;;;;;;62.69;0.00;99444.13;4984622;28;20047;-67
2023/06/15 09:53:31;;;;;;;4.95;2.00;;;;;;;62.77;0.00;99444.41;5000524;28;20046;-67
2023/06/15 09:56:00;;;;;;;3.42;1.90;;;;;;;62.42;0.00;99441.09;5016501;28;20041;-67
2023/06/15 09:58:27;;;;;;;4.22;2.00;;;;;;;62.24;0.00;99433.66;5016796;28;20045;-67
2023/06/15 10:00:57;;;;;;;4.90;1.65;;;;;;;62.76;0.00;99439.97;5016172;28;20063;-67
2023/06/15 10:03:24;;;;;;;2.65;2.00;;;;;;;63.36;0.00;99438.56;5016867;28;20052;-68
2023/06/15 10:05:56;;;;;;;6.65;1.80;;;;;;;63.94;0.00;99432.59;5032720;28;20045;-67
2023/06/15 10:08:26;;;;;;;8.43;2.00;;;;;;;63.46;0.00;99426.28;5032711;28;20045;-67
2023/06/15 10:10:55;;;;;;;3.90;1.80;;;;;;;63.28;0.00;99423.88;5015541;28;20489;-68
2023/06/15 10:13:41;;;;;;;7.68;2.25;;;;;;;63.73;0.00;99425.50;4988188;28;20038;-67
2023/06/15 10:16:09;;;;;;;7.60;2.40;;;;;;;63.74;0.00;99412.66;4973110;28;20117;-68
2023/06/15 10:18:36;;;;;;;4.75;1.98;;;;;;;64.07;0.00;99403.19;4973181;28;20050;-68
2023/06/15 10:21:02;;;;;;;4.68;1.90;;;;;;;64.12;0.00;99408.94;4991861;28;20046;-67
2023/06/15 10:23:29;;;;;;;7.20;1.90;;;;;;;62.99;0.00;99412.81;5008168;28;20042;-68
2023/06/15 10:25:58;;;;;;;3.17;2.10;;;;;;;63.05;0.00;99411.53;4992087;28;20058;-67
2023/06/15 10:28:24;;;;;;;6.20;2.03;;;;;;;62.30;0.00;99410.66;4975864;28;20149;-67
2023/06/15 10:31:11;;;;;;;4.57;1.98;;;;;;;62.37;0.00;99399.47;5008711;28;20131;-67
2023/06/15 10:33:44;;;;;;;4.55;1.90;;;;;;;62.84;0.00;99403.59;4992439;28;20042;-68
2023/06/15 10:36:21;;;;;;;4.05;2.00;;;;;;;62.64;0.00;99400.91;4976397;28;20053;-67
2023/06/15 10:39:03;;;;;;;2.15;1.98;;;;;;;62.81;0.00;99396.75;4995718;28;20056;-69
2023/06/15 10:41:30;;;;;;;3.53;2.28;;;;;;;62.65;0.00;99394.63;4995701;28;20073;-68
2023/06/15 10:44:00;;;;;;;2.55;1.90;;;;;;;62.10;0.00;99379.16;4979377;28;20056;-69
2023/06/15 10:46:28;;;;;;;5.97;2.20;;;;;;;61.21;0.00;99387.03;4994984;28;20048;-68
2023/06/15 10:48:55;;;;;;;3.30;1.90;;;;;;;61.40;0.00;99387.47;4979054;28;20047;-69
2023/06/15 10:51:21;;;;;;;4.75;2.08;;;;;;;61.51;0.00;99370.34;5012907;28;20052;-69
2023/06/15 10:53:47;;;;;;;4.20;2.00;;;;;;;61.24;0.00;99379.50;5051177;28;20523;-69
2023/06/15 10:56:19;;;;;;;6.70;2.03;;;;;;;60.94;0.00;99384.66;5018789;28;20056;-69
2023/06/15 10:58:58;;;;;;;4.43;2.30;;;;;;;60.64;0.00;99377.47;5034840;28;20052;-69
2023/06/15 11:01:26;;;;;;;4.43;2.22;;;;;;;59.27;0.00;99376.16;5018451;28;20480;-69
2023/06/15 11:03:55;;;;;;;6.80;2.10;;;;;;;57.92;0.53;99372.25;5001757;28;20049;-68
2023/06/15 11:06:33;;;;;;;6.57;2.30;;;;;;;56.07;0.88;99366.78;5018435;28;20048;-68
2023/06/15 11:09:07;;;;;;;6.60;2.53;;;;;;;54.62;1.21;99362.22;5018012;28;20052;-68
2023/06/15 11:11:35;;;;;;;6.20;2.35;;;;;;;53.36;1.89;99361.50;5034204;28;20045;-68
2023/06/15 11:14:02;;;;;;;3.75;2.72;;;;;;;51.82;2.25;99351.47;5034630;28;20192;-68
2023/06/15 11:16:35;;;;;;;5.55;2.78;;;;;;;50.56;2.74;99343.59;5051478;28;20452;-69
2023/06/15 11:19:14;;;;;;;3.78;2.92;;;;;;;48.68;3.44;99343.06;5001892;28;20130;-69
2023/06/15 11:21:57;;;;;;;6.90;2.70;;;;;;;47.17;4.45;99333.69;5018371;28;20041;-68
2023/06/15 11:24:34;;;;;;;9.30;2.70;;;;;;;46.74;4.59;99325.78;5025330;28;20052;-68
2023/06/15 11:27:09;;;;;;;4.10;2.80;;;;;;;46.57;4.74;99338.69;5055650;28;20040;-68
2023/06/15 11:29:36;;;;;;;4.68;3.50;;;;;;;46.02;5.24;99327.06;5071912;28;20052;-67
2023/06/15 11:32:04;;;;;;;6.80;3.30;;;;;;;45.47;5.23;99328.56;5038926;28;20054;-67
2023/06/15 11:34:35;;;;;;;4.50;3.15;;;;;;;45.30;5.29;99337.72;5022200;28;20163;-67
2023/06/15 11:37:01;;;;;;;10.95;3.15;;;;;;;45.08;5.58;99324.00;5022006;28;20139;-68